Condicions actuals
Partly Cloudy
Conditions



Pressió:
1020.92 (hPa) - 30.15 (inHG)
Visibilitat:

10.0 (km) - 6.2 (miles)
Base de Núvols

396 (Mts) - 1300 (Feets)
   Temperatura
9  °C
Temperatura
3  °C
P. rosada
66  %
 Humitat
   Velocitat del Vent
16  km/h
9  kts
10  mph
4.5  m/s
   Wind Direction
N
45°
E
90°
135°
S
180°
225°
O
270°
315°
 330°

Nord Nord
Oest
   Airport Data
LEBL
Barcelona International Airport
Metar :LEBL 270030Z 33009KT 9999 FEW013 BKN017 09/03 Q1021 NOSIG
Wed 27th January 01:30 am
   Raw Metar Info
Raw METAR is the most common format in the world for the transmission of observational weather data. It is highly standardized through the International Civil Aviation Organization (ICAO), which allows it to be understood throughout most of the world.
   API Info
Data Provided by
https://www.checkwx.com/weather/LEBL

Aviation Weather providing METAR, TAF, AIRMET, SIGMET and OUTLOOK Weather Reports
   © Info
CSS/SVG/PHP scripts were developed by weather34.com for use in the weather34 template © 2015-2021

Guide Info provided by Metar-Wikipedia